AB8YS Weather Reports


Display with metric or nautical units.
time (UTC)temp
F
wind
direction
speed
MPH
gust
MPH
rain 1hr
in
rain 24hr
in
rain mn
in
humidity
%
barometer
mb
20240624134535 75 68 0.0 4.0 0.00 0.02 0.00 67 1013.7
20240624133042 75 355 0.0 2.0 0.00 0.02 0.00 70 1013.5
20240624131532 75 65 0.0 2.0 0.00 0.02 0.00 71 1013.6
20240624130042 74 4 0.0 4.0 0.00 0.02 0.00 70 1013.5
20240624124529 73 359 0.0 4.0 0.00 0.07 0.00 74 1013.3
20240624123025 72 78 0.0 3.0 0.00 0.07 0.00 76 1013.2
20240624121524 71 110 0.0 4.0 0.00 0.07 0.00 78 1013.0
20240624120022 71 342 0.0 1.0 0.00 0.07 0.00 78 1012.8
20240624114540 70 346 0.0 0.0 0.00 0.21 0.00 79 1012.5
20240624113019 68 346 0.0 0.0 0.00 0.21 0.00 83 1012.4
20240624111517 66 346 0.0 1.0 0.00 0.21 0.00 88 1012.2
20240624110016 63 345 0.0 0.0 0.00 0.21 0.00 93 1011.9
20240624104519 62 147 0.0 0.0 0.00 0.21 0.00 91 1011.8
20240624103014 62 147 0.0 0.0 0.00 0.21 0.00 91 1011.7
20240624101509 62 94 0.0 0.0 0.00 0.21 0.00 90 1011.4
20240624100010 63 94 0.0 0.0 0.00 0.21 0.00 90 1011.3
20240624094505 63 94 0.0 0.0 0.00 0.21 0.00 90 1011.0
20240624093003 64 94 0.0 0.0 0.00 0.21 0.00 89 1010.9
20240624091503 64 93 0.0 0.0 0.00 0.21 0.00 89 1011.1
20240624090119 64 81 0.0 0.0 0.00 0.21 0.00 89 1010.8
20240624084603 65 85 0.0 0.0 0.00 0.21 0.00 89 1010.6
20240624083054 65 85 0.0 1.0 0.00 0.21 0.00 88 1010.4
20240624081552 66 102 0.0 0.0 0.00 0.21 0.00 88 1010.3
20240624080057 66 11 0.0 0.0 0.00 0.21 0.00 88 1010.4
20240624074548 67 11 0.0 0.0 0.00 0.21 0.00 87 1010.3
20240624073049 67 321 0.0 1.0 0.00 0.21 0.00 86 1010.3
20240624071545 68 277 0.0 1.0 0.00 0.21 0.00 86 1010.1
20240624070050 68 276 0.0 0.0 0.00 0.21 0.00 85 1010.0
20240624064537 69 320 0.0 1.0 0.00 0.21 0.00 85 1009.8
20240624063036 69 278 0.0 1.0 0.00 0.21 0.00 83 1009.7
20240624061534 70 296 0.0 1.0 0.00 0.21 0.00 82 1009.6
20240624060031 70 280 0.0 0.0 0.00 0.21 0.00 81 1009.6
20240624054536 71 279 0.0 1.0 0.00 0.21 0.00 80 1009.3
20240624053027 71 344 0.0 0.0 0.00 0.21 0.00 79 1009.3
20240624051524 72 343 0.0 1.0 0.00 0.21 0.00 77 1009.1
20240624050025 72 342 0.0 0.0 0.00 0.21 0.00 76 1009.1
20240624044525 73 319 0.0 2.0 0.00 0.21 0.00 76 1009.0
20240624043016 73 326 0.0 6.0 0.00 0.21 0.00 76 1008.9
20240624041520 74 49 0.0 2.0 0.00 0.21 0.00 78 1008.7
20240624040011 74 13 0.0 3.0 0.00 0.21 0.00 78 1008.5
20240624034516 75 73 0.0 1.0 0.00 0.21 0.21 78 1008.2
20240624033009 75 287 0.0 1.0 0.00 0.21 0.21 79 1008.1
20240624031509 74 287 0.0 0.0 0.00 0.21 0.21 80 1007.7
20240624030010 74 286 0.0 0.0 0.00 0.21 0.21 81 1007.4
20240624024509 74 286 0.0 0.0 0.00 0.21 0.21 81 1007.2
20240624023016 75 286 0.0 0.0 0.00 0.21 0.21 80 1007.0
20240624021508 75 286 0.0 0.0 0.00 0.21 0.21 78 1006.8
20240624020011 76 286 0.0 0.0 0.00 0.21 0.21 77 1006.6
20240624014507 77 286 0.0 0.0 0.00 0.21 0.21 77 1006.6
20240624013011 77 286 0.0 0.0 0.00 0.21 0.21 75 1006.5
20240624011509 78 286 0.0 0.0 0.00 0.21 0.21 74 1006.3
20240624010006 79 286 0.0 0.0 0.00 0.21 0.21 72 1006.2
20240624004505 80 286 0.0 1.0 0.00 0.21 0.21 71 1006.1
20240624003005 80 296 0.0 2.0 0.00 0.21 0.21 69 1006.0
20240624001504 80 292 0.0 1.0 0.00 0.21 0.21 69 1005.9
20240624000008 81 277 0.0 1.0 0.00 0.21 0.21 69 1005.9
20240623234504 81 277 0.0 1.0 0.00 0.21 0.21 69 1005.8
20240623233002 82 277 0.0 1.0 0.00 0.21 0.21 65 1005.6
20240623231501 82 270 0.0 1.0 0.00 0.21 0.21 64 1005.5
20240623230001 82 270 0.0 3.0 0.00 0.21 0.21 63 1005.3
20240623224602 83 288 0.0 1.0 0.00 0.21 0.21 64 1005.3
20240623223101 82 295 0.0 2.0 0.00 0.21 0.21 66 1005.3
20240623221600 83 290 0.0 2.0 0.00 0.21 0.21 66 1005.1
20240623220057 82 300 0.0 3.0 0.01 0.21 0.21 71 1004.9
20240623214557 82 285 0.0 2.0 0.01 0.21 0.21 75 1005.0
20240623213114 81 282 0.0 1.0 0.01 0.21 0.21 79 1005.2
20240623211556 82 266 0.0 1.0 0.01 0.21 0.21 79 1005.2
20240623210055 84 261 0.0 3.0 0.00 0.20 0.20 70 1005.2
20240623204554 83 276 0.0 1.0 0.00 0.20 0.20 75 1005.2
20240623203054 83 278 0.0 1.0 0.00 0.20 0.20 74 1005.3
20240623201557 84 268 0.0 2.0 0.00 0.20 0.20 72 1005.5
20240623200057 84 309 0.0 2.0 0.00 0.20 0.20 74 1005.4
20240623194549 83 263 0.0 2.0 0.00 0.20 0.20 77 1005.5
20240623193044 83 258 0.0 3.0 0.00 0.20 0.20 77 1005.7
20240623191543 82 262 0.0 2.0 0.00 0.20 0.20 80 1005.9
20240623190103 82 273 0.0 2.0 0.01 0.20 0.20 79 1005.9
20240623184541 82 274 0.0 2.0 0.01 0.20 0.20 81 1006.1
20240623183040 80 289 0.0 2.0 0.01 0.20 0.20 86 1006.0
20240623181536 79 262 0.0 2.0 0.01 0.20 0.20 86 1006.1
20240623180036 80 289 0.0 2.0 0.00 0.19 0.19 83 1006.0
20240623174605 79 233 0.0 2.0 0.00 0.19 0.19 85 1006.1
20240623173046 79 262 1.0 5.0 0.00 0.19 0.19 84 1006.2
20240623171534 79 252 0.0 3.0 0.00 0.19 0.19 86 1006.2
20240623170033 78 260 0.0 1.0 0.00 0.19 0.19 89 1006.2
20240623164538 78 259 0.0 1.0 0.00 0.19 0.19 87 1006.2
20240623163035 78 280 0.0 1.0 0.00 0.19 0.19 85 1006.1
20240623161541 79 267 0.0 2.0 0.00 0.19 0.19 85 1006.1
20240623160027 78 278 0.0 4.0 0.00 0.19 0.19 85 1006.1
20240623154528 78 248 0.0 2.0 0.00 0.19 0.19 88 1006.1
20240623153028 77 259 0.0 1.0 0.00 0.19 0.19 88 1006.1
20240623151534 76 257 0.0 2.0 0.00 0.19 0.19 90 1006.1
20240623150025 75 264 0.0 6.0 0.00 0.19 0.19 90 1006.0
20240623144528 76 269 0.0 3.0 0.00 0.19 0.19 90 1005.9
20240623143025 76 262 0.0 2.0 0.00 0.19 0.19 92 1005.9
20240623141525 75 272 0.0 3.0 0.00 0.19 0.19 94 1006.0
20240623140022 74 264 0.0 1.0 0.00 0.19 0.19 95 1005.9